Time;durP1;ratioP1;P1;durP2;ratioP2;P2;SDS_P1;SDS_P2;PMS_P1;PMS_P2;Temp;Humidity;BMP_temperature;BMP_pressure;BME280_temperature;BME280_humidity;BME280_pressure;Samples;Min_cycle;Max_cycle;Signal;HPM_P1;HPM_P2
2022/09/07 00:00:34;;;;;;;1.25;0.50;;;;;;;19.17;73.44;101342.59;5055397;27;99834;-31
2022/09/07 00:03:00;;;;;;;0.80;0.50;;;;;;;19.19;72.73;101334.22;5037340;27;101270;-30
2022/09/07 00:05:27;;;;;;;1.70;0.82;;;;;;;19.08;73.41;101333.28;5055444;27;96481;-30
2022/09/07 00:07:52;;;;;;;2.58;1.20;;;;;;;18.95;73.91;101316.19;5037699;27;96889;-30
2022/09/07 00:10:18;;;;;;;1.35;0.90;;;;;;;18.87;74.64;101305.00;5037413;27;101135;-30
2022/09/07 00:12:44;;;;;;;1.85;0.93;;;;;;;18.83;74.02;101300.78;5054729;27;98115;-31
2022/09/07 00:15:11;;;;;;;1.13;0.82;;;;;;;18.63;74.54;101284.19;5055725;27;96636;-31
2022/09/07 00:17:37;;;;;;;1.45;0.80;;;;;;;18.45;74.45;101281.22;5055393;27;96515;-30
2022/09/07 00:20:04;;;;;;;2.00;0.82;;;;;;;18.30;75.62;101271.56;5055526;27;97585;-30
2022/09/07 00:22:29;;;;;;;1.23;0.70;;;;;;;18.21;76.17;101277.88;5037464;27;102008;-30
2022/09/07 00:24:55;;;;;;;1.60;0.85;;;;;;;18.18;75.07;101284.47;5055879;27;96615;-30
2022/09/07 00:27:20;;;;;;;1.00;0.65;;;;;;;18.13;75.89;101286.75;5055612;27;100597;-30
2022/09/07 00:29:46;;;;;;;1.25;0.77;;;;;;;18.12;76.47;101274.06;5055041;27;97313;-30
2022/09/07 00:32:11;;;;;;;1.33;0.70;;;;;;;18.01;76.63;101260.41;5055547;27;98251;-30
2022/09/07 00:34:36;;;;;;;3.85;1.00;;;;;;;18.05;75.95;101275.59;5055808;27;96507;-31
2022/09/07 00:37:02;;;;;;;1.70;0.90;;;;;;;18.03;76.26;101291.31;5055544;27;96771;-30
2022/09/07 00:39:27;;;;;;;2.22;1.00;;;;;;;18.01;76.48;101301.53;5055349;27;97967;-29
2022/09/07 00:41:53;;;;;;;1.08;0.63;;;;;;;18.01;76.64;101298.78;5055087;27;99045;-30
2022/09/07 00:44:43;;;;;;;1.65;1.00;;;;;;;18.02;76.55;101301.41;5055023;27;96776;-29
2022/09/07 00:47:16;;;;;;;2.13;1.02;;;;;;;17.99;76.39;101298.03;5056018;27;96827;-30
2022/09/07 00:49:46;;;;;;;2.05;1.15;;;;;;;18.03;76.55;101300.41;5036862;27;101011;-30
2022/09/07 00:52:15;;;;;;;3.08;0.98;;;;;;;18.08;76.74;101305.47;5055048;27;98387;-30
2022/09/07 00:54:45;;;;;;;2.25;0.70;;;;;;;18.09;75.83;101299.03;5036286;27;96641;-30
2022/09/07 00:57:11;;;;;;;1.73;0.82;;;;;;;18.08;76.51;101305.47;5055571;27;96486;-31
2022/09/07 00:59:44;;;;;;;1.83;0.93;;;;;;;18.12;76.30;101306.97;5036438;27;101231;-29
2022/09/07 01:02:11;;;;;;;2.00;1.10;;;;;;;18.13;75.58;101316.91;5036563;27;101141;-30
2022/09/07 01:04:37;;;;;;;1.25;0.82;;;;;;;18.15;76.78;101314.06;5036694;27;96563;-30
2022/09/07 01:07:04;;;;;;;2.30;0.93;;;;;;;18.21;76.71;101327.22;5036721;27;96801;-30
2022/09/07 01:09:30;;;;;;;2.63;0.80;;;;;;;18.27;76.19;101336.81;5036283;27;101053;-31
2022/09/07 01:11:58;;;;;;;1.92;0.70;;;;;;;18.22;75.31;101339.94;5036505;27;100838;-30
2022/09/07 01:14:36;;;;;;;2.38;0.90;;;;;;;18.22;77.19;101339.94;5054698;27;96640;-29
2022/09/07 01:17:32;;;;;;;2.40;1.00;;;;;;;18.21;76.58;101344.56;5055000;27;96648;-30
2022/09/07 01:20:19;;;;;;;0.52;0.50;;;;;;;18.28;77.25;101358.59;5035859;27;100816;-30
2022/09/07 01:23:15;;;;;;;0.75;0.60;;;;;;;18.33;76.74;101355.47;5036196;27;100663;-30
2022/09/07 01:26:11;;;;;;;1.70;0.70;;;;;;;18.36;76.44;101336.88;5055152;27;96479;-30
2022/09/07 01:28:37;;;;;;;1.52;0.88;;;;;;;18.35;75.68;101345.22;5054648;27;97684;-30
2022/09/07 01:31:21;;;;;;;2.20;0.85;;;;;;;18.32;76.06;101343.63;5036196;27;100849;-30
2022/09/07 01:34:03;;;;;;;1.30;0.65;;;;;;;18.36;76.55;101347.00;5036271;27;100890;-30
2022/09/07 01:36:41;;;;;;;0.77;0.57;;;;;;;18.33;76.18;101336.25;5036394;27;96790;-31
2022/09/07 01:39:07;;;;;;;2.60;0.70;;;;;;;18.32;75.05;101329.91;5036923;27;96741;-30
2022/09/07 01:41:46;;;;;;;2.00;0.93;;;;;;;18.34;76.79;101322.44;5054302;27;99309;-30
2022/09/07 01:44:25;;;;;;;0.98;0.68;;;;;;;18.32;76.50;101329.06;5035835;27;100842;-31
2022/09/07 01:46:59;;;;;;;0.75;0.52;;;;;;;18.31;76.39;101321.84;5035761;27;96663;-30
2022/09/07 01:49:55;;;;;;;2.17;0.60;;;;;;;18.31;77.38;101310.88;5036261;27;96829;-29
2022/09/07 01:52:39;;;;;;;1.10;0.60;;;;;;;18.30;76.22;101312.72;5042707;27;98007;-30
2022/09/07 01:55:23;;;;;;;2.03;0.90;;;;;;;18.30;75.72;101323.69;5035719;27;100876;-29
2022/09/07 01:58:12;;;;;;;0.85;0.60;;;;;;;18.28;76.78;101320.19;5054452;27;96602;-30
2022/09/07 02:00:42;;;;;;;1.95;0.85;;;;;;;18.25;76.46;101326.81;5054333;27;96860;-30
2022/09/07 02:03:14;;;;;;;1.17;0.68;;;;;;;18.22;77.42;101318.00;5035806;27;101163;-30
2022/09/07 02:05:53;;;;;;;1.08;0.70;;;;;;;18.21;77.33;101316.25;5054295;27;99342;-30
2022/09/07 02:08:28;;;;;;;1.60;1.10;;;;;;;18.23;76.46;101320.63;5036152;27;96580;-30
2022/09/07 02:11:01;;;;;;;1.67;1.10;;;;;;;18.24;76.00;101327.84;5054790;27;96996;-29
2022/09/07 02:13:33;;;;;;;2.33;0.82;;;;;;;18.24;76.54;101332.47;5034564;27;101098;-32
2022/09/07 02:16:05;;;;;;;2.05;1.13;;;;;;;18.23;76.63;101331.59;5037894;27;100970;-30
2022/09/07 02:18:46;;;;;;;2.60;0.98;;;;;;;18.27;77.37;101325.84;5057501;27;96813;-29
2022/09/07 02:21:16;;;;;;;1.05;0.77;;;;;;;18.23;76.61;101328.84;5039410;27;96886;-30
2022/09/07 02:23:57;;;;;;;2.65;1.00;;;;;;;18.17;76.63;101323.03;5039005;27;101895;-31
2022/09/07 02:26:25;;;;;;;1.88;0.93;;;;;;;18.15;76.51;101328.63;5038687;27;100903;-30
2022/09/07 02:28:51;;;;;;;2.20;1.00;;;;;;;18.16;76.87;101337.72;5039345;27;96607;-30
2022/09/07 02:31:16;;;;;;;2.17;0.90;;;;;;;18.18;77.54;101349.44;5058051;27;96805;-30
2022/09/07 02:33:42;;;;;;;2.00;0.88;;;;;;;18.19;76.99;101334.75;5056938;27;99325;-30
2022/09/07 02:36:28;;;;;;;4.25;0.82;;;;;;;18.19;77.10;101327.38;5057063;27;99734;-30
2022/09/07 02:38:54;;;;;;;1.88;0.57;;;;;;;18.17;77.25;101320.28;5038244;27;97298;-30
2022/09/07 02:41:34;;;;;;;0.68;0.57;;;;;;;18.12;78.06;101314.34;5057594;27;96777;-30
2022/09/07 02:44:03;;;;;;;1.27;0.65;;;;;;;18.04;77.00;101314.97;5057253;27;98091;-30
2022/09/07 02:46:58;;;;;;;1.60;0.75;;;;;;;17.98;77.95;101324.59;5038721;27;100835;-31
2022/09/07 02:49:41;;;;;;;2.67;0.90;;;;;;;17.94;78.74;101333.22;5049041;27;96771;-29
2022/09/07 02:52:21;;;;;;;2.22;0.85;;;;;;;17.89;77.91;101339.09;5057526;27;96523;-30
2022/09/07 02:55:01;;;;;;;2.53;0.95;;;;;;;17.92;77.66;101337.94;5038555;27;101051;-29
2022/09/07 02:57:54;;;;;;;1.27;0.68;;;;;;;17.94;78.23;101325.84;5038989;27;99762;-30
2022/09/07 03:00:25;;;;;;;2.00;0.80;;;;;;;17.96;77.54;101325.72;5057266;27;96463;-30
2022/09/07 03:03:25;;;;;;;1.08;0.73;;;;;;;17.97;77.91;101327.47;5038688;27;96693;-30
2022/09/07 03:05:57;;;;;;;1.50;0.90;;;;;;;17.96;77.86;101326.59;5055861;27;98149;-30
2022/09/07 03:08:34;;;;;;;1.20;0.85;;;;;;;17.96;77.42;101318.38;5056661;27;97819;-30
2022/09/07 03:11:00;;;;;;;3.85;1.10;;;;;;;17.95;76.96;101322.13;5038714;27;96560;-31
2022/09/07 03:13:27;;;;;;;4.82;0.90;;;;;;;17.96;77.76;101317.50;5037998;27;96825;-31
2022/09/07 03:15:53;;;;;;;3.28;0.88;;;;;;;17.94;77.02;101298.44;5038139;27;101434;-29
2022/09/07 03:18:19;;;;;;;1.67;0.80;;;;;;;17.96;77.27;101301.91;5038089;27;100883;-32
2022/09/07 03:20:45;;;;;;;1.00;0.77;;;;;;;17.94;77.36;101289.34;5056939;27;96440;-30
2022/09/07 03:23:10;;;;;;;3.55;1.10;;;;;;;17.91;77.97;101289.63;5057562;27;96787;-30
2022/09/07 03:25:36;;;;;;;3.03;1.08;;;;;;;17.92;77.26;101291.34;5055839;27;100940;-30
2022/09/07 03:28:02;;;;;;;4.32;1.00;;;;;;;17.88;76.95;101282.53;5055433;27;98016;-29
2022/09/07 03:30:27;;;;;;;1.65;0.95;;;;;;;17.88;77.26;101281.69;5037685;27;96631;-30
2022/09/07 03:32:53;;;;;;;1.65;1.00;;;;;;;17.86;77.18;101286.41;5056641;27;96740;-31
2022/09/07 03:35:18;;;;;;;4.68;1.13;;;;;;;17.85;76.87;101290.13;5056067;27;97459;-29
2022/09/07 03:37:43;;;;;;;2.88;1.10;;;;;;;17.85;77.68;101301.09;5056275;27;97861;-29
2022/09/07 03:40:11;;;;;;;1.95;1.23;;;;;;;17.83;77.26;101291.16;5056445;27;96697;-30
2022/09/07 03:42:37;;;;;;;2.38;1.20;;;;;;;17.80;77.32;101296.91;5056560;27;96851;-31
2022/09/07 03:45:03;;;;;;;0.77;0.68;;;;;;;17.78;78.15;101293.38;5056199;27;98155;-30
2022/09/07 03:47:29;;;;;;;2.58;1.20;;;;;;;17.78;77.48;101296.13;5037960;27;102037;-32
2022/09/07 03:49:54;;;;;;;3.17;1.38;;;;;;;17.76;77.52;101289.91;5056087;27;96633;-30
2022/09/07 03:52:20;;;;;;;2.00;1.10;;;;;;;17.74;77.49;101291.91;5056740;27;96739;-29
2022/09/07 03:54:45;;;;;;;2.33;1.00;;;;;;;17.71;77.66;101292.16;5055397;27;99368;-30
2022/09/07 03:57:11;;;;;;;1.55;1.10;;;;;;;17.65;77.82;101300.88;5056108;27;97234;-29
2022/09/07 03:59:36;;;;;;;2.55;1.38;;;;;;;17.66;77.82;101308.09;5056104;27;96496;-30
2022/09/07 04:02:01;;;;;;;1.17;1.00;;;;;;;17.61;78.44;101307.63;5056207;27;96811;-30
2022/09/07 04:04:27;;;;;;;2.45;1.45;;;;;;;17.62;78.14;101312.13;5055311;27;99715;-31
2022/09/07 04:06:53;;;;;;;2.17;1.17;;;;;;;17.59;78.24;101312.34;5037314;27;101247;-31
2022/09/07 04:09:18;;;;;;;1.95;1.10;;;;;;;17.58;78.38;101316.97;5055948;27;96718;-30
2022/09/07 04:11:43;;;;;;;2.92;1.35;;;;;;;17.57;78.59;101315.25;5056075;27;96780;-29
2022/09/07 04:14:10;;;;;;;2.08;1.20;;;;;;;17.58;78.17;101310.63;5055322;27;98360;-30
2022/09/07 04:16:35;;;;;;;3.25;1.20;;;;;;;17.56;78.79;101313.47;5037132;27;100819;-29
2022/09/07 04:19:01;;;;;;;2.78;1.58;;;;;;;17.60;78.87;101303.16;5055160;27;96648;-30
2022/09/07 04:21:28;;;;;;;2.30;1.50;;;;;;;17.59;77.85;101306.88;5055611;27;96857;-31
2022/09/07 04:23:54;;;;;;;3.80;1.73;;;;;;;17.57;78.11;101315.25;5036930;27;100581;-30
2022/09/07 04:26:28;;;;;;;3.00;1.73;;;;;;;17.59;78.18;101306.88;5055749;27;97232;-30
2022/09/07 04:28:54;;;;;;;2.45;1.45;;;;;;;17.59;78.76;101294.06;5056080;27;96459;-29
2022/09/07 04:31:20;;;;;;;2.05;1.27;;;;;;;17.59;78.36;101299.53;5037069;27;96767;-30
2022/09/07 04:33:47;;;;;;;2.90;1.27;;;;;;;17.59;78.37;101301.38;5055092;27;99328;-30
2022/09/07 04:36:14;;;;;;;3.08;1.60;;;;;;;17.58;78.22;101303.28;5037361;27;101118;-29
2022/09/07 04:38:40;;;;;;;2.42;1.30;;;;;;;17.59;77.76;101301.38;5036966;27;96652;-30
2022/09/07 04:41:12;;;;;;;1.88;1.23;;;;;;;17.55;78.08;101294.44;5055434;27;96897;-30
2022/09/07 04:43:38;;;;;;;;;;;;;;;17.59;78.34;101284.94;5036753;27;101479;-30
2022/09/07 04:46:06;;;;;;;2.10;1.30;;;;;;;17.57;77.95;101290.59;5055033;27;99112;-30
2022/09/07 04:48:31;;;;;;;1.90;1.25;;;;;;;17.52;78.15;101289.22;5037188;27;96826;-30
2022/09/07 04:51:08;;;;;;;3.03;1.33;;;;;;;17.51;78.84;101284.75;5055582;27;96794;-30
2022/09/07 04:53:35;;;;;;;3.47;1.35;;;;;;;17.49;78.46;101289.47;5054841;27;99353;-30
2022/09/07 04:56:01;;;;;;;3.17;1.48;;;;;;;17.49;78.65;101287.59;5036528;27;104842;-30
2022/09/07 04:58:27;;;;;;;3.97;1.05;;;;;;;17.46;78.34;101284.25;5054991;27;96633;-31
2022/09/07 05:00:52;;;;;;;2.03;1.10;;;;;;;17.43;77.95;101273.56;5055790;27;96769;-30
2022/09/07 05:03:17;;;;;;;6.05;1.17;;;;;;;17.46;78.20;101268.69;5055037;27;97916;-31
2022/09/07 05:05:43;;;;;;;2.22;1.25;;;;;;;17.45;78.77;101271.56;5054792;27;99672;-31
2022/09/07 05:08:09;;;;;;;2.58;1.42;;;;;;;17.45;78.60;101274.28;5036500;27;96546;-30
2022/09/07 05:10:35;;;;;;;1.80;1.25;;;;;;;17.47;79.11;101273.19;5055261;27;96794;-29
2022/09/07 05:13:00;;;;;;;2.65;1.40;;;;;;;17.43;78.90;101271.69;5054339;27;97940;-29
2022/09/07 05:15:28;;;;;;;4.50;1.60;;;;;;;17.41;79.26;101269.06;5054718;27;99465;-29
2022/09/07 05:17:54;;;;;;;2.33;1.52;;;;;;;17.40;78.64;101272.81;5036446;27;96731;-31
2022/09/07 05:20:20;;;;;;;1.98;1.33;;;;;;;17.44;78.77;101278.91;5055181;27;96779;-31
2022/09/07 05:22:45;;;;;;;2.50;1.42;;;;;;;17.40;78.65;101269.22;5054542;27;99328;-29
2022/09/07 05:25:11;;;;;;;2.38;1.35;;;;;;;17.44;78.89;101278.03;5055015;27;97500;-29
2022/09/07 05:27:42;;;;;;;1.95;1.30;;;;;;;17.44;79.14;101281.66;5054557;27;97101;-30
2022/09/07 05:30:08;;;;;;;5.85;1.40;;;;;;;17.40;78.94;101272.81;5054652;27;100869;-30
2022/09/07 05:32:33;;;;;;;2.97;1.67;;;;;;;17.47;77.97;101277.78;5054226;27;97569;-31
2022/09/07 05:34:59;;;;;;;4.95;1.90;;;;;;;17.48;78.63;101279.53;5054244;27;107899;-30
2022/09/07 05:37:24;;;;;;;3.33;1.92;;;;;;;17.46;79.11;101292.47;5054471;27;100355;-30
2022/09/07 05:39:53;;;;;;;4.20;1.92;;;;;;;17.38;79.46;101291.25;5054701;27;96844;-30
2022/09/07 05:42:19;;;;;;;5.20;2.13;;;;;;;17.38;79.37;101290.38;5053923;27;99319;-30
2022/09/07 05:44:44;;;;;;;3.50;1.80;;;;;;;17.43;78.95;101299.09;5053878;27;109964;-31
2022/09/07 05:47:09;;;;;;;3.75;2.28;;;;;;;17.43;78.44;101304.56;5054700;27;96646;-30
2022/09/07 05:49:35;;;;;;;4.13;2.05;;;;;;;17.43;78.86;101299.09;5055471;27;96840;-30
2022/09/07 05:52:00;;;;;;;5.78;2.13;;;;;;;17.44;79.76;101291.72;5057601;27;108122;-30
2022/09/07 05:54:25;;;;;;;3.63;2.35;;;;;;;17.40;79.44;101293.88;5057909;27;97080;-30
2022/09/07 05:56:51;;;;;;;3.28;2.00;;;;;;;17.40;79.25;101294.75;5057387;27;96727;-29
2022/09/07 05:59:16;;;;;;;3.67;2.08;;;;;;;17.43;78.76;101298.22;5057841;27;96882;-29
2022/09/07 06:01:41;;;;;;;6.70;2.75;;;;;;;17.47;78.71;101302.44;5057626;27;99277;-31
2022/09/07 06:04:07;;;;;;;6.93;3.28;;;;;;;17.46;79.27;101300.69;5057830;27;98242;-29
2022/09/07 06:06:37;;;;;;;4.80;2.40;;;;;;;17.48;80.09;101312.41;5057879;27;96529;-31
2022/09/07 06:09:02;;;;;;;5.93;2.42;;;;;;;17.48;79.60;101320.63;5039704;27;96757;-29
2022/09/07 06:11:28;;;;;;;3.33;1.95;;;;;;;17.51;79.83;101318.47;5057292;27;97925;-30
2022/09/07 06:13:53;;;;;;;4.85;2.25;;;;;;;17.51;81.03;101313.00;5057518;27;100162;-29
2022/09/07 06:16:19;;;;;;;4.53;2.30;;;;;;;17.51;79.67;101317.63;5057698;27;96454;-30
2022/09/07 06:18:46;;;;;;;5.95;2.42;;;;;;;17.49;80.23;101328.69;5039046;27;96878;-30
2022/09/07 06:21:19;;;;;;;3.75;2.30;;;;;;;17.54;79.47;101325.56;5038413;27;99775;-30
2022/09/07 06:23:46;;;;;;;4.22;2.50;;;;;;;17.48;80.12;101328.84;5038234;27;101443;-31
2022/09/07 06:26:13;;;;;;;4.72;2.60;;;;;;;17.53;79.40;101332.91;5039263;27;96566;-30
2022/09/07 06:28:43;;;;;;;4.07;2.17;;;;;;;17.53;80.81;101329.31;5039269;27;96943;-30
2022/09/07 06:31:14;;;;;;;5.60;2.53;;;;;;;17.61;79.69;101332.28;5038963;27;100814;-30
2022/09/07 06:33:41;;;;;;;6.57;2.17;;;;;;;17.62;80.75;101337.63;5038935;27;100952;-31
2022/09/07 06:36:11;;;;;;;4.53;2.45;;;;;;;17.69;80.30;101332.53;5038769;27;96670;-30
2022/09/07 06:38:37;;;;;;;6.22;2.53;;;;;;;17.81;79.20;101333.38;5039327;27;96922;-29
2022/09/07 06:41:04;;;;;;;4.63;2.20;;;;;;;17.86;79.69;101335.75;5037486;27;101386;-30
2022/09/07 06:43:30;;;;;;;5.00;2.35;;;;;;;17.84;79.86;101338.59;5038616;27;100798;-30
2022/09/07 06:45:56;;;;;;;4.32;2.55;;;;;;;18.01;78.51;101348.13;5056547;27;96568;-30
2022/09/07 06:48:21;;;;;;;5.00;2.75;;;;;;;18.12;78.93;101348.09;5057442;27;96725;-30
2022/09/07 06:51:08;;;;;;;5.63;2.35;;;;;;;18.24;79.01;101343.44;5057200;27;97392;-30
2022/09/07 06:53:35;;;;;;;4.20;2.42;;;;;;;18.29;77.58;101343.03;5038526;27;101508;-29
2022/09/07 06:56:05;;;;;;;4.43;2.42;;;;;;;18.35;77.66;101346.13;5037912;27;96677;-30
2022/09/07 06:58:31;;;;;;;5.07;2.53;;;;;;;18.41;77.10;101356.56;5036783;27;97155;-31
2022/09/07 07:00:56;;;;;;;7.28;2.42;;;;;;;18.53;76.94;101359.25;5055629;27;97970;-31
2022/09/07 07:03:22;;;;;;;3.78;2.10;;;;;;;18.48;77.82;101356.91;5055948;27;99577;-30
2022/09/07 07:05:55;;;;;;;5.60;2.53;;;;;;;18.57;78.01;101361.59;5056724;27;96868;-30
2022/09/07 07:08:23;;;;;;;4.45;2.45;;;;;;;18.39;77.82;101357.69;5038655;27;96855;-29
2022/09/07 07:10:49;;;;;;;7.45;2.90;;;;;;;18.35;78.68;101364.44;5037662;27;101108;-30
2022/09/07 07:13:15;;;;;;;5.15;3.03;;;;;;;18.40;77.67;101371.28;5037415;27;100868;-31
2022/09/07 07:15:41;;;;;;;5.20;3.33;;;;;;;18.47;78.01;101374.34;5057031;27;96652;-29
2022/09/07 07:18:08;;;;;;;5.65;3.15;;;;;;;18.55;76.99;101365.47;5038119;27;96890;-29
2022/09/07 07:20:37;;;;;;;4.65;2.92;;;;;;;18.49;78.11;101366.84;5038276;27;100968;-29
2022/09/07 07:23:03;;;;;;;5.28;3.28;;;;;;;18.52;77.66;101350.16;5038076;27;99484;-31
2022/09/07 07:25:28;;;;;;;4.60;2.65;;;;;;;18.60;77.06;101346.72;5038223;27;96738;-31
2022/09/07 07:27:53;;;;;;;5.53;3.10;;;;;;;18.62;77.22;101355.69;5056966;27;96714;-29
2022/09/07 07:30:20;;;;;;;5.30;3.22;;;;;;;18.63;77.50;101360.16;5056527;27;97292;-30
2022/09/07 07:32:46;;;;;;;5.72;3.45;;;;;;;18.85;76.38;101370.16;5037759;27;101331;-30
2022/09/07 07:35:17;;;;;;;6.32;3.35;;;;;;;18.97;77.73;101368.19;5037877;27;96783;-29
2022/09/07 07:37:43;;;;;;;6.23;3.50;;;;;;;18.87;76.25;101368.16;5038372;27;96781;-30
2022/09/07 07:40:10;;;;;;;4.72;3.08;;;;;;;18.91;76.15;101380.59;5056035;27;99665;-30
2022/09/07 07:42:37;;;;;;;5.22;2.83;;;;;;;19.05;75.97;101382.13;5037759;27;100828;-29
2022/09/07 07:45:03;;;;;;;4.53;2.58;;;;;;;19.18;75.06;101380.00;5037949;27;96534;-29
2022/09/07 07:47:29;;;;;;;6.88;2.95;;;;;;;19.27;75.40;101381.94;5038087;27;96807;-29
2022/09/07 07:49:55;;;;;;;6.47;2.83;;;;;;;19.41;74.42;101377.94;5037561;27;101244;-31
2022/09/07 07:52:20;;;;;;;3.78;2.33;;;;;;;19.40;74.55;101380.81;5056441;27;97309;-30
2022/09/07 07:54:46;;;;;;;4.28;2.50;;;;;;;19.43;74.49;101375.06;5056115;27;96593;-30
2022/09/07 07:57:12;;;;;;;6.18;2.47;;;;;;;19.51;74.83;101378.84;5037828;27;96899;-31
2022/09/07 07:59:38;;;;;;;3.92;2.33;;;;;;;19.61;74.16;101381.63;5037048;27;101231;-30
2022/09/07 08:02:05;;;;;;;6.13;2.70;;;;;;;19.74;74.76;101384.16;5055768;27;99608;-30
2022/09/07 08:04:34;;;;;;;5.80;2.35;;;;;;;19.91;73.60;101380.72;5055947;27;96722;-29
2022/09/07 08:07:00;;;;;;;4.18;2.05;;;;;;;20.06;73.79;101372.03;5037792;27;96919;-29
2022/09/07 08:09:26;;;;;;;4.90;2.80;;;;;;;20.24;72.77;101374.97;5055712;27;97942;-29
2022/09/07 08:11:51;;;;;;;4.28;2.20;;;;;;;20.26;72.64;101375.66;5055395;27;97433;-29
2022/09/07 08:14:17;;;;;;;7.13;2.75;;;;;;;20.42;72.30;101372.34;5055001;27;96886;-30
2022/09/07 08:16:43;;;;;;;4.63;2.15;;;;;;;20.47;71.89;101364.50;5038063;27;96923;-29
2022/09/07 08:19:08;;;;;;;7.30;2.90;;;;;;;20.44;72.15;101371.19;5055639;27;98176;-30
2022/09/07 08:21:33;;;;;;;8.98;2.78;;;;;;;20.37;72.13;101367.28;5055022;27;115663;-30
2022/09/07 08:23:59;;;;;;;5.07;2.97;;;;;;;20.64;72.11;101368.44;5055249;27;96567;-29
2022/09/07 08:26:25;;;;;;;6.38;3.05;;;;;;;20.86;70.80;101361.75;5055736;27;96880;-30
2022/09/07 08:28:50;;;;;;;5.05;2.97;;;;;;;20.89;70.88;101359.53;5055512;27;97570;-31
2022/09/07 08:31:16;;;;;;;7.22;3.17;;;;;;;20.78;71.03;101356.94;5054917;27;116014;-30
2022/09/07 08:33:41;;;;;;;8.93;3.70;;;;;;;20.72;71.55;101363.94;5037297;27;96688;-29
2022/09/07 08:36:11;;;;;;;6.00;3.65;;;;;;;20.81;71.73;101369.56;5055583;27;96816;-30
2022/09/07 08:38:37;;;;;;;8.20;3.20;;;;;;;20.83;71.60;101371.13;5036840;27;101103;-30
2022/09/07 08:41:34;;;;;;;5.95;3.05;;;;;;;20.98;71.22;101363.28;5055428;27;99316;-30
2022/09/07 08:44:15;;;;;;;6.55;3.35;;;;;;;21.10;71.26;101362.09;5055253;27;96521;-29
2022/09/07 08:46:48;;;;;;;6.10;3.22;;;;;;;21.07;71.54;101356.00;5037342;27;96804;-30
2022/09/07 08:49:32;;;;;;;5.45;2.97;;;;;;;20.94;71.01;101357.19;5036297;27;100979;-31
2022/09/07 08:52:01;;;;;;;6.13;3.30;;;;;;;20.96;71.42;101354.31;5036653;27;101438;-30
2022/09/07 08:54:27;;;;;;;5.78;2.88;;;;;;;20.99;71.04;101352.09;5055135;27;96695;-30
2022/09/07 08:56:56;;;;;;;6.53;2.65;;;;;;;21.00;71.11;101351.09;5036972;27;96901;-31
2022/09/07 08:59:32;;;;;;;6.28;2.90;;;;;;;21.04;71.33;101348.91;5054956;27;99536;-31
2022/09/07 09:01:57;;;;;;;6.22;3.15;;;;;;;20.98;70.32;101350.38;5036615;27;100720;-29
2022/09/07 09:04:28;;;;;;;5.15;2.72;;;;;;;20.94;71.01;101348.94;5055098;27;96712;-29
2022/09/07 09:10:32;;;;;;;7.15;2.78;;;;;;;20.97;70.62;101361.53;5055364;27;97097;-30
2022/09/07 09:13:18;;;;;;;4.47;2.05;;;;;;;21.00;70.80;101359.38;5035718;27;101197;-30
2022/09/07 09:16:12;;;;;;;3.60;1.70;;;;;;;21.14;70.71;101358.03;5036388;27;96607;-29
2022/09/07 09:18:43;;;;;;;4.57;2.30;;;;;;;21.21;70.16;101363.78;5036489;27;96708;-30
2022/09/07 09:21:12;;;;;;;;;;;;;;;21.38;69.85;101359.34;5036963;27;101468;-30
2022/09/07 09:23:40;;;;;;;3.38;1.70;;;;;;;21.61;69.07;101355.19;5054283;27;100194;-29
2022/09/07 09:26:19;;;;;;;2.72;1.35;;;;;;;21.85;67.38;101357.34;5049699;27;96818;-30
2022/09/07 09:28:44;;;;;;;5.53;1.65;;;;;;;21.95;68.15;101362.84;5053860;27;97017;-31
2022/09/07 09:31:17;;;;;;;2.60;1.27;;;;;;;22.19;65.84;101356.69;5037290;28;111279;-30
2022/09/07 09:33:42;;;;;;;3.15;1.30;;;;;;;22.30;66.63;101352.84;5019738;28;101270;-30
2022/09/07 09:36:24;;;;;;;1.95;0.98;;;;;;;22.46;64.33;101349.38;5038267;28;96465;-29
2022/09/07 09:38:50;;;;;;;3.15;1.17;;;;;;;22.51;64.46;101352.50;5019806;28;96815;-30
2022/09/07 09:41:15;;;;;;;4.03;0.88;;;;;;;22.73;64.53;101347.50;5037279;28;97374;-29
2022/09/07 09:43:50;;;;;;;1.52;0.95;;;;;;;23.01;62.45;101349.09;5037817;28;97278;-30
2022/09/07 09:46:20;;;;;;;2.55;1.08;;;;;;;23.12;62.90;101345.19;5057036;27;96849;-29
2022/09/07 09:48:58;;;;;;;3.03;0.80;;;;;;;23.29;61.72;101349.75;5039226;27;98345;-29
2022/09/07 09:51:26;;;;;;;5.18;1.30;;;;;;;23.53;62.26;101348.13;5039637;27;101598;-30
2022/09/07 09:54:04;;;;;;;2.90;1.10;;;;;;;23.72;61.85;101347.84;5039648;27;101548;-30
2022/09/07 09:56:42;;;;;;;3.50;1.10;;;;;;;23.76;59.86;101355.84;5039726;27;96659;-30
2022/09/07 09:59:16;;;;;;;5.82;1.70;;;;;;;23.98;60.90;101352.44;5040160;27;96905;-31
2022/09/07 10:01:44;;;;;;;2.63;1.25;;;;;;;24.33;60.62;101350.41;5057937;27;98540;-30
2022/09/07 10:04:26;;;;;;;7.30;1.48;;;;;;;24.27;58.44;101351.09;5038825;27;101211;-29
2022/09/07 10:06:54;;;;;;;4.90;1.20;;;;;;;24.35;59.42;101342.78;5037149;28;96654;-29
2022/09/07 10:09:23;;;;;;;3.53;1.20;;;;;;;24.30;59.76;101346.06;5019315;28;96854;-31
2022/09/07 10:11:56;;;;;;;6.90;1.42;;;;;;;24.56;58.34;101334.00;5018814;28;101456;-30
2022/09/07 10:14:29;;;;;;;4.65;1.40;;;;;;;24.54;55.90;101345.25;5036834;28;99760;-31
2022/09/07 10:16:55;;;;;;;4.32;1.65;;;;;;;24.79;58.44;101335.00;5036700;27;97226;-29
2022/09/07 10:19:41;;;;;;;2.80;1.08;;;;;;;25.00;56.40;101331.69;5039170;27;96892;-30
2022/09/07 10:22:33;;;;;;;5.60;1.40;;;;;;;24.94;57.17;101337.91;5055936;27;99388;-30
2022/09/07 10:24:59;;;;;;;2.88;1.10;;;;;;;24.98;56.77;101336.53;5039343;27;100955;-30
2022/09/07 10:27:36;;;;;;;3.55;1.13;;;;;;;25.01;56.83;101341.72;5038825;27;96760;-31
2022/09/07 10:30:10;;;;;;;3.05;1.20;;;;;;;24.87;55.46;101338.81;5057449;27;96769;-30
2022/09/07 10:32:42;;;;;;;3.83;1.13;;;;;;;24.83;56.22;101340.19;5038501;27;101492;-30
2022/09/07 10:35:30;;;;;;;3.33;1.00;;;;;;;24.63;55.61;101337.78;5056912;27;97919;-29
2022/09/07 10:38:19;;;;;;;7.03;1.17;;;;;;;24.69;55.90;101348.16;5057267;27;96822;-32
2022/09/07 10:41:06;;;;;;;4.18;1.05;;;;;;;24.72;55.83;101346.97;5038768;27;96917;-29
2022/09/07 10:43:42;;;;;;;5.03;1.10;;;;;;;24.72;56.16;101347.84;5056907;27;99548;-29
2022/09/07 10:46:17;;;;;;;3.40;1.13;;;;;;;24.50;56.41;101343.88;5038519;27;101267;-30
2022/09/07 10:49:09;;;;;;;4.35;1.02;;;;;;;24.61;56.41;101334.34;5018859;28;96699;-29
2022/09/07 10:52:06;;;;;;;4.60;1.40;;;;;;;24.77;55.85;101326.00;4997592;28;97062;-29
2022/09/07 10:54:50;;;;;;;3.30;1.20;;;;;;;24.77;54.26;101339.84;5036768;28;97968;-29
2022/09/07 10:57:43;;;;;;;2.72;1.20;;;;;;;25.04;53.02;101336.84;5036709;28;97831;-29
2022/09/07 11:00:20;;;;;;;2.38;0.75;;;;;;;25.26;51.67;101335.25;5036414;28;96659;-30
2022/09/07 11:02:55;;;;;;;2.88;1.10;;;;;;;25.21;54.13;101338.56;5018556;28;96814;-30
2022/09/07 11:06:01;;;;;;;2.63;1.17;;;;;;;25.19;51.37;101332.31;5018006;28;99044;-29
2022/09/07 11:09:01;;;;;;;3.40;0.90;;;;;;;25.21;51.22;101324.69;5036339;28;97458;-30
2022/09/07 11:11:39;;;;;;;2.63;0.82;;;;;;;25.36;52.16;101327.56;5036516;28;96622;-30
2022/09/07 11:14:12;;;;;;;5.28;1.20;;;;;;;25.26;50.32;101324.16;5036297;28;96835;-30
2022/09/07 11:16:43;;;;;;;1.63;0.90;;;;;;;25.42;50.83;101319.41;5017972;28;100925;-30
2022/09/07 11:19:20;;;;;;;2.35;1.00;;;;;;;25.49;52.01;101327.88;5018323;28;101123;-29
2022/09/07 11:21:55;;;;;;;2.22;1.13;;;;;;;25.60;52.26;101326.63;5017996;28;96489;-30
2022/09/07 11:24:45;;;;;;;5.72;1.52;;;;;;;25.82;50.63;101320.22;5018144;28;96980;-29
2022/09/07 11:27:36;;;;;;;2.20;1.02;;;;;;;25.98;50.66;101321.19;5017368;28;100695;-30
2022/09/07 11:30:22;;;;;;;2.97;0.90;;;;;;;25.97;49.78;101322.25;5017812;28;101097;-29
2022/09/07 11:32:58;;;;;;;4.32;1.40;;;;;;;25.97;49.84;101319.47;5018001;28;96569;-30
2022/09/07 11:35:34;;;;;;;7.85;1.67;;;;;;;26.08;48.44;101327.38;5018172;28;96818;-30
2022/09/07 11:38:09;;;;;;;4.18;1.33;;;;;;;26.23;47.85;101319.97;5017730;28;100956;-30
2022/09/07 11:40:55;;;;;;;3.42;1.20;;;;;;;26.22;48.03;101323.81;5017990;27;100568;-30
2022/09/07 11:43:30;;;;;;;2.50;0.95;;;;;;;26.36;48.54;101321.25;5054903;27;96722;-30
2022/09/07 11:46:10;;;;;;;2.75;0.75;;;;;;;26.44;48.65;101318.41;5037307;27;96793;-30